sensor_id;sensor_type;location;lat;lon;timestamp;temperature;humidity
51595;DHT22;37677;53.254;6.594;2023-05-27T00:01:27;8.40;31.20
51595;DHT22;37677;53.254;6.594;2023-05-27T00:03:52;8.20;29.70
51595;DHT22;37677;53.254;6.594;2023-05-27T00:06:18;8.10;29.90
51595;DHT22;37677;53.254;6.594;2023-05-27T00:08:44;8.10;29.10
51595;DHT22;37677;53.254;6.594;2023-05-27T00:13:36;8.00;26.70
51595;DHT22;37677;53.254;6.594;2023-05-27T00:16:01;8.10;29.10
51595;DHT22;37677;53.254;6.594;2023-05-27T00:18:27;7.80;29.80
51595;DHT22;37677;53.254;6.594;2023-05-27T00:20:53;7.90;29.20
51595;DHT22;37677;53.254;6.594;2023-05-27T00:23:18;8.40;29.90
51595;DHT22;37677;53.254;6.594;2023-05-27T00:25:44;7.80;34.00
51595;DHT22;37677;53.254;6.594;2023-05-27T00:28:10;8.00;30.60
51595;DHT22;37677;53.254;6.594;2023-05-27T00:30:36;7.70;31.20
51595;DHT22;37677;53.254;6.594;2023-05-27T00:33:02;8.10;33.80
51595;DHT22;37677;53.254;6.594;2023-05-27T00:35:28;8.00;37.50
51595;DHT22;37677;53.254;6.594;2023-05-27T00:37:54;7.90;38.50
51595;DHT22;37677;53.254;6.594;2023-05-27T00:40:22;7.80;33.40
51595;DHT22;37677;53.254;6.594;2023-05-27T00:42:48;8.10;35.70
51595;DHT22;37677;53.254;6.594;2023-05-27T00:45:14;7.90;40.40
51595;DHT22;37677;53.254;6.594;2023-05-27T00:47:39;7.80;35.50
51595;DHT22;37677;53.254;6.594;2023-05-27T00:50:06;8.00;33.40
51595;DHT22;37677;53.254;6.594;2023-05-27T00:52:33;7.80;33.50
51595;DHT22;37677;53.254;6.594;2023-05-27T00:54:59;8.10;34.70
51595;DHT22;37677;53.254;6.594;2023-05-27T00:57:25;8.20;39.50
51595;DHT22;37677;53.254;6.594;2023-05-27T00:59:52;8.00;40.70
51595;DHT22;37677;53.254;6.594;2023-05-27T01:02:18;8.10;39.80
51595;DHT22;37677;53.254;6.594;2023-05-27T01:04:44;7.80;37.80
51595;DHT22;37677;53.254;6.594;2023-05-27T01:07:21;7.90;38.30
51595;DHT22;37677;53.254;6.594;2023-05-27T01:09:49;7.80;41.00
51595;DHT22;37677;53.254;6.594;2023-05-27T01:12:40;7.80;44.70
51595;DHT22;37677;53.254;6.594;2023-05-27T01:15:08;7.80;42.20
51595;DHT22;37677;53.254;6.594;2023-05-27T01:17:35;7.70;41.70
51595;DHT22;37677;53.254;6.594;2023-05-27T01:20:03;7.90;44.00
51595;DHT22;37677;53.254;6.594;2023-05-27T01:22:35;7.80;43.60
51595;DHT22;37677;53.254;6.594;2023-05-27T01:25:02;8.10;44.60
51595;DHT22;37677;53.254;6.594;2023-05-27T01:27:28;7.70;47.30
51595;DHT22;37677;53.254;6.594;2023-05-27T01:29:55;7.80;46.40
51595;DHT22;37677;53.254;6.594;2023-05-27T01:37:19;8.10;47.30
51595;DHT22;37677;53.254;6.594;2023-05-27T01:39:49;8.40;54.60
51595;DHT22;37677;53.254;6.594;2023-05-27T01:42:15;8.20;48.70
51595;DHT22;37677;53.254;6.594;2023-05-27T01:44:42;9.30;51.10
51595;DHT22;37677;53.254;6.594;2023-05-27T01:47:08;8.20;52.40
51595;DHT22;37677;53.254;6.594;2023-05-27T01:49:33;8.10;51.60
51595;DHT22;37677;53.254;6.594;2023-05-27T01:52:01;8.10;47.40
51595;DHT22;37677;53.254;6.594;2023-05-27T01:54:26;8.20;49.30
51595;DHT22;37677;53.254;6.594;2023-05-27T01:56:52;8.50;45.60
51595;DHT22;37677;53.254;6.594;2023-05-27T01:59:18;8.10;47.70
51595;DHT22;37677;53.254;6.594;2023-05-27T02:01:44;8.20;45.00
51595;DHT22;37677;53.254;6.594;2023-05-27T02:04:10;8.20;46.70
51595;DHT22;37677;53.254;6.594;2023-05-27T02:06:35;8.50;47.60
51595;DHT22;37677;53.254;6.594;2023-05-27T02:09:02;8.70;46.30
51595;DHT22;37677;53.254;6.594;2023-05-27T02:11:28;8.20;44.60
51595;DHT22;37677;53.254;6.594;2023-05-27T02:13:53;8.40;44.20
51595;DHT22;37677;53.254;6.594;2023-05-27T02:16:19;8.20;53.60
51595;DHT22;37677;53.254;6.594;2023-05-27T02:18:48;8.00;46.40
51595;DHT22;37677;53.254;6.594;2023-05-27T02:21:16;8.00;49.30
51595;DHT22;37677;53.254;6.594;2023-05-27T02:23:42;8.50;51.80
51595;DHT22;37677;53.254;6.594;2023-05-27T02:26:08;7.60;51.60
51595;DHT22;37677;53.254;6.594;2023-05-27T02:28:33;8.70;51.70
51595;DHT22;37677;53.254;6.594;2023-05-27T02:31:00;8.10;52.30
51595;DHT22;37677;53.254;6.594;2023-05-27T02:33:25;8.90;54.50
51595;DHT22;37677;53.254;6.594;2023-05-27T02:35:51;8.10;57.00
51595;DHT22;37677;53.254;6.594;2023-05-27T02:38:17;8.20;52.30
51595;DHT22;37677;53.254;6.594;2023-05-27T02:40:42;8.40;53.80
51595;DHT22;37677;53.254;6.594;2023-05-27T02:43:08;8.00;53.40
51595;DHT22;37677;53.254;6.594;2023-05-27T02:45:34;8.00;54.50
51595;DHT22;37677;53.254;6.594;2023-05-27T02:47:59;8.10;54.10
51595;DHT22;37677;53.254;6.594;2023-05-27T02:50:27;8.10;57.50
51595;DHT22;37677;53.254;6.594;2023-05-27T02:52:52;8.40;53.40
51595;DHT22;37677;53.254;6.594;2023-05-27T02:55:18;8.20;57.20
51595;DHT22;37677;53.254;6.594;2023-05-27T02:57:44;8.40;50.60
51595;DHT22;37677;53.254;6.594;2023-05-27T03:00:10;8.50;54.40
51595;DHT22;37677;53.254;6.594;2023-05-27T03:02:36;8.40;46.20
51595;DHT22;37677;53.254;6.594;2023-05-27T03:05:03;8.70;46.90
51595;DHT22;37677;53.254;6.594;2023-05-27T03:07:29;8.50;43.40
51595;DHT22;37677;53.254;6.594;2023-05-27T03:09:55;9.50;42.00
51595;DHT22;37677;53.254;6.594;2023-05-27T03:12:21;8.80;42.20
51595;DHT22;37677;53.254;6.594;2023-05-27T03:14:47;8.80;43.70
51595;DHT22;37677;53.254;6.594;2023-05-27T03:17:13;8.90;52.50
51595;DHT22;37677;53.254;6.594;2023-05-27T03:19:38;8.70;44.20
51595;DHT22;37677;53.254;6.594;2023-05-27T03:22:04;8.90;43.50
51595;DHT22;37677;53.254;6.594;2023-05-27T03:24:33;8.70;42.90
51595;DHT22;37677;53.254;6.594;2023-05-27T03:26:59;8.60;45.50
51595;DHT22;37677;53.254;6.594;2023-05-27T03:29:26;8.60;50.40
51595;DHT22;37677;53.254;6.594;2023-05-27T03:31:52;8.70;47.10
51595;DHT22;37677;53.254;6.594;2023-05-27T03:34:18;8.80;47.40
51595;DHT22;37677;53.254;6.594;2023-05-27T03:36:43;8.80;40.00
51595;DHT22;37677;53.254;6.594;2023-05-27T03:39:14;8.70;40.30
51595;DHT22;37677;53.254;6.594;2023-05-27T03:41:40;8.80;38.50
51595;DHT22;37677;53.254;6.594;2023-05-27T03:44:06;8.80;41.60
51595;DHT22;37677;53.254;6.594;2023-05-27T03:46:32;9.60;42.50
51595;DHT22;37677;53.254;6.594;2023-05-27T03:48:57;8.90;43.20
51595;DHT22;37677;53.254;6.594;2023-05-27T03:51:23;9.50;45.40
51595;DHT22;37677;53.254;6.594;2023-05-27T03:53:49;9.10;42.50
51595;DHT22;37677;53.254;6.594;2023-05-27T03:56:15;9.00;44.70
51595;DHT22;37677;53.254;6.594;2023-05-27T03:58:41;8.90;41.10
51595;DHT22;37677;53.254;6.594;2023-05-27T04:01:06;9.30;44.00
51595;DHT22;37677;53.254;6.594;2023-05-27T04:03:32;9.50;48.30
51595;DHT22;37677;53.254;6.594;2023-05-27T04:05:58;9.30;42.90
51595;DHT22;37677;53.254;6.594;2023-05-27T04:08:24;9.20;44.70
51595;DHT22;37677;53.254;6.594;2023-05-27T04:10:54;9.10;35.80
51595;DHT22;37677;53.254;6.594;2023-05-27T04:13:20;9.20;42.40
51595;DHT22;37677;53.254;6.594;2023-05-27T04:15:46;9.20;35.10
51595;DHT22;37677;53.254;6.594;2023-05-27T04:18:12;9.20;35.60
51595;DHT22;37677;53.254;6.594;2023-05-27T04:20:39;9.30;37.80
51595;DHT22;37677;53.254;6.594;2023-05-27T04:23:06;9.30;33.50
51595;DHT22;37677;53.254;6.594;2023-05-27T04:25:32;9.70;39.60
51595;DHT22;37677;53.254;6.594;2023-05-27T04:28:00;9.90;45.10
51595;DHT22;37677;53.254;6.594;2023-05-27T04:30:29;9.60;42.10
51595;DHT22;37677;53.254;6.594;2023-05-27T04:32:55;9.80;42.10
51595;DHT22;37677;53.254;6.594;2023-05-27T04:35:21;9.70;35.70
51595;DHT22;37677;53.254;6.594;2023-05-27T04:37:47;9.70;33.50
51595;DHT22;37677;53.254;6.594;2023-05-27T04:40:13;10.30;28.50
51595;DHT22;37677;53.254;6.594;2023-05-27T04:42:39;9.80;27.80
51595;DHT22;37677;53.254;6.594;2023-05-27T04:45:06;9.90;29.40
51595;DHT22;37677;53.254;6.594;2023-05-27T04:47:34;9.80;28.40
51595;DHT22;37677;53.254;6.594;2023-05-27T04:50:03;9.90;28.90
51595;DHT22;37677;53.254;6.594;2023-05-27T04:52:29;9.90;28.80
51595;DHT22;37677;53.254;6.594;2023-05-27T04:55:05;9.90;31.30
51595;DHT22;37677;53.254;6.594;2023-05-27T04:57:32;9.90;32.90
51595;DHT22;37677;53.254;6.594;2023-05-27T04:59:58;9.90;30.00
51595;DHT22;37677;53.254;6.594;2023-05-27T05:02:43;10.20;31.00
51595;DHT22;37677;53.254;6.594;2023-05-27T05:05:11;10.10;38.70
51595;DHT22;37677;53.254;6.594;2023-05-27T05:07:38;10.20;31.20
51595;DHT22;37677;53.254;6.594;2023-05-27T05:10:12;10.60;36.90
51595;DHT22;37677;53.254;6.594;2023-05-27T05:12:38;10.20;29.40
51595;DHT22;37677;53.254;6.594;2023-05-27T05:15:05;10.10;28.60
51595;DHT22;37677;53.254;6.594;2023-05-27T05:17:31;10.20;33.60
51595;DHT22;37677;53.254;6.594;2023-05-27T05:19:57;9.90;39.20
51595;DHT22;37677;53.254;6.594;2023-05-27T05:24:49;10.20;30.60
51595;DHT22;37677;53.254;6.594;2023-05-27T05:27:15;10.10;40.30
51595;DHT22;37677;53.254;6.594;2023-05-27T05:29:41;10.90;33.90
51595;DHT22;37677;53.254;6.594;2023-05-27T05:32:08;10.30;33.30
51595;DHT22;37677;53.254;6.594;2023-05-27T05:34:34;10.30;32.20
51595;DHT22;37677;53.254;6.594;2023-05-27T05:37:00;10.90;34.10
51595;DHT22;37677;53.254;6.594;2023-05-27T05:39:25;11.00;34.90
51595;DHT22;37677;53.254;6.594;2023-05-27T05:44:17;10.30;34.40
51595;DHT22;37677;53.254;6.594;2023-05-27T05:46:43;9.50;36.80
51595;DHT22;37677;53.254;6.594;2023-05-27T05:49:09;10.40;36.90
51595;DHT22;37677;53.254;6.594;2023-05-27T05:51:35;10.40;39.10
51595;DHT22;37677;53.254;6.594;2023-05-27T05:54:01;10.70;48.20
51595;DHT22;37677;53.254;6.594;2023-05-27T05:56:27;11.20;50.20
51595;DHT22;37677;53.254;6.594;2023-05-27T05:58:53;11.10;43.10
51595;DHT22;37677;53.254;6.594;2023-05-27T06:01:19;11.30;36.40
51595;DHT22;37677;53.254;6.594;2023-05-27T06:03:44;11.30;29.10
51595;DHT22;37677;53.254;6.594;2023-05-27T06:06:10;9.70;27.60
51595;DHT22;37677;53.254;6.594;2023-05-27T06:08:36;11.60;21.40
51595;DHT22;37677;53.254;6.594;2023-05-27T06:11:02;11.60;17.20
51595;DHT22;37677;53.254;6.594;2023-05-27T06:13:27;11.50;9.80
51595;DHT22;37677;53.254;6.594;2023-05-27T06:15:53;11.60;10.50
51595;DHT22;37677;53.254;6.594;2023-05-27T06:18:21;11.60;6.90
51595;DHT22;37677;53.254;6.594;2023-05-27T06:20:47;11.70;4.60
51595;DHT22;37677;53.254;6.594;2023-05-27T06:23:13;12.30;3.80
51595;DHT22;37677;53.254;6.594;2023-05-27T06:25:38;13.00;1.80
51595;DHT22;37677;53.254;6.594;2023-05-27T06:28:04;12.20;1.00
51595;DHT22;37677;53.254;6.594;2023-05-27T06:30:31;12.50;1.00
51595;DHT22;37677;53.254;6.594;2023-05-27T06:32:57;12.10;1.00
51595;DHT22;37677;53.254;6.594;2023-05-27T06:35:22;12.20;1.00
51595;DHT22;37677;53.254;6.594;2023-05-27T06:37:48;12.40;1.00
51595;DHT22;37677;53.254;6.594;2023-05-27T06:40:14;12.90;1.00
51595;DHT22;37677;53.254;6.594;2023-05-27T06:42:39;12.70;1.00
51595;DHT22;37677;53.254;6.594;2023-05-27T06:45:05;13.00;1.00
51595;DHT22;37677;53.254;6.594;2023-05-27T06:47:31;13.00;1.00
51595;DHT22;37677;53.254;6.594;2023-05-27T06:49:57;13.30;1.00
51595;DHT22;37677;53.254;6.594;2023-05-27T06:52:23;13.40;1.00
51595;DHT22;37677;53.254;6.594;2023-05-27T06:57:15;14.00;1.00
51595;DHT22;37677;53.254;6.594;2023-05-27T06:59:40;14.30;1.00
51595;DHT22;37677;53.254;6.594;2023-05-27T07:02:06;13.80;1.00
51595;DHT22;37677;53.254;6.594;2023-05-27T07:04:33;15.10;1.00
51595;DHT22;37677;53.254;6.594;2023-05-27T07:06:59;16.10;1.00
51595;DHT22;37677;53.254;6.594;2023-05-27T07:09:24;15.90;99.90
51595;DHT22;37677;53.254;6.594;2023-05-27T07:11:50;16.20;53.20
51595;DHT22;37677;53.254;6.594;2023-05-27T07:14:16;15.90;99.90
51595;DHT22;37677;53.254;6.594;2023-05-27T07:16:41;16.40;76.50
51595;DHT22;37677;53.254;6.594;2023-05-27T07:21:33;16.90;99.90
51595;DHT22;37677;53.254;6.594;2023-05-27T07:24:02;17.00;99.90
51595;DHT22;37677;53.254;6.594;2023-05-27T07:26:32;17.50;99.90
51595;DHT22;37677;53.254;6.594;2023-05-27T07:28:59;17.50;18.20
51595;DHT22;37677;53.254;6.594;2023-05-27T07:31:28;17.90;1.00
51595;DHT22;37677;53.254;6.594;2023-05-27T07:33:54;17.90;99.90
51595;DHT22;37677;53.254;6.594;2023-05-27T07:36:20;18.70;99.90
51595;DHT22;37677;53.254;6.594;2023-05-27T07:38:46;19.60;1.00
51595;DHT22;37677;53.254;6.594;2023-05-27T07:46:06;19.00;99.90
51595;DHT22;37677;53.254;6.594;2023-05-27T07:48:32;19.60;61.10
51595;DHT22;37677;53.254;6.594;2023-05-27T07:50:57;19.50;1.00
51595;DHT22;37677;53.254;6.594;2023-05-27T07:53:23;19.40;1.00
51595;DHT22;37677;53.254;6.594;2023-05-27T07:55:49;18.80;72.80
51595;DHT22;37677;53.254;6.594;2023-05-27T07:58:15;18.80;99.90
51595;DHT22;37677;53.254;6.594;2023-05-27T08:00:40;19.20;99.90
51595;DHT22;37677;53.254;6.594;2023-05-27T08:03:06;19.00;1.00
51595;DHT22;37677;53.254;6.594;2023-05-27T08:05:32;19.10;1.00
51595;DHT22;37677;53.254;6.594;2023-05-27T08:07:58;19.10;1.00
51595;DHT22;37677;53.254;6.594;2023-05-27T08:10:25;19.70;99.90
51595;DHT22;37677;53.254;6.594;2023-05-27T08:15:17;20.80;99.90
51595;DHT22;37677;53.254;6.594;2023-05-27T08:17:43;20.00;1.00
51595;DHT22;37677;53.254;6.594;2023-05-27T08:20:10;19.60;99.90
51595;DHT22;37677;53.254;6.594;2023-05-27T08:22:36;19.60;64.20
51595;DHT22;37677;53.254;6.594;2023-05-27T08:25:02;20.70;99.90
51595;DHT22;37677;53.254;6.594;2023-05-27T08:27:53;20.80;99.90
51595;DHT22;37677;53.254;6.594;2023-05-27T08:30:19;20.70;99.90
51595;DHT22;37677;53.254;6.594;2023-05-27T08:32:45;20.20;1.00
51595;DHT22;37677;53.254;6.594;2023-05-27T08:35:12;20.70;1.00
51595;DHT22;37677;53.254;6.594;2023-05-27T08:37:38;20.40;1.00
51595;DHT22;37677;53.254;6.594;2023-05-27T08:40:10;20.50;99.90
51595;DHT22;37677;53.254;6.594;2023-05-27T08:42:36;19.80;1.00
51595;DHT22;37677;53.254;6.594;2023-05-27T08:45:02;19.80;43.10
51595;DHT22;37677;53.254;6.594;2023-05-27T08:47:29;20.70;26.10
51595;DHT22;37677;53.254;6.594;2023-05-27T08:50:05;21.30;99.90
51595;DHT22;37677;53.254;6.594;2023-05-27T08:52:33;21.90;99.90
51595;DHT22;37677;53.254;6.594;2023-05-27T08:55:00;22.20;99.90
51595;DHT22;37677;53.254;6.594;2023-05-27T08:57:31;22.20;45.40
51595;DHT22;37677;53.254;6.594;2023-05-27T08:59:58;21.10;99.90
51595;DHT22;37677;53.254;6.594;2023-05-27T09:02:24;20.80;99.90
51595;DHT22;37677;53.254;6.594;2023-05-27T09:04:50;21.20;99.90
51595;DHT22;37677;53.254;6.594;2023-05-27T09:07:19;22.10;99.90
51595;DHT22;37677;53.254;6.594;2023-05-27T09:09:57;22.00;96.30
51595;DHT22;37677;53.254;6.594;2023-05-27T09:12:25;22.40;3.00
51595;DHT22;37677;53.254;6.594;2023-05-27T09:14:52;22.00;99.90
51595;DHT22;37677;53.254;6.594;2023-05-27T09:17:19;21.80;7.00
51595;DHT22;37677;53.254;6.594;2023-05-27T09:19:45;22.30;91.70
51595;DHT22;37677;53.254;6.594;2023-05-27T09:22:21;22.60;1.00
51595;DHT22;37677;53.254;6.594;2023-05-27T09:24:48;22.40;1.00
51595;DHT22;37677;53.254;6.594;2023-05-27T09:27:14;22.10;1.00
51595;DHT22;37677;53.254;6.594;2023-05-27T09:29:40;22.00;99.90
51595;DHT22;37677;53.254;6.594;2023-05-27T09:32:06;22.00;99.90
51595;DHT22;37677;53.254;6.594;2023-05-27T09:34:38;22.30;99.90
51595;DHT22;37677;53.254;6.594;2023-05-27T09:37:04;22.10;80.00
51595;DHT22;37677;53.254;6.594;2023-05-27T09:39:30;22.70;1.00
51595;DHT22;37677;53.254;6.594;2023-05-27T09:41:57;22.70;1.00
51595;DHT22;37677;53.254;6.594;2023-05-27T09:44:29;23.50;1.00
51595;DHT22;37677;53.254;6.594;2023-05-27T09:46:58;22.60;33.70
51595;DHT22;37677;53.254;6.594;2023-05-27T09:49:26;22.80;1.00
51595;DHT22;37677;53.254;6.594;2023-05-27T09:51:54;22.40;1.00
51595;DHT22;37677;53.254;6.594;2023-05-27T09:54:21;22.20;47.90
51595;DHT22;37677;53.254;6.594;2023-05-27T09:56:49;22.20;16.60
51595;DHT22;37677;53.254;6.594;2023-05-27T09:59:18;22.40;1.00
51595;DHT22;37677;53.254;6.594;2023-05-27T10:01:45;22.50;1.00
51595;DHT22;37677;53.254;6.594;2023-05-27T10:04:14;22.60;1.00
51595;DHT22;37677;53.254;6.594;2023-05-27T10:06:41;22.80;1.00
51595;DHT22;37677;53.254;6.594;2023-05-27T10:09:07;22.40;1.00
51595;DHT22;37677;53.254;6.594;2023-05-27T10:11:33;22.00;1.00
51595;DHT22;37677;53.254;6.594;2023-05-27T10:14:07;22.10;1.00
51595;DHT22;37677;53.254;6.594;2023-05-27T10:16:36;21.90;58.80
51595;DHT22;37677;53.254;6.594;2023-05-27T10:19:02;22.10;95.90
51595;DHT22;37677;53.254;6.594;2023-05-27T10:21:29;22.20;10.90
51595;DHT22;37677;53.254;6.594;2023-05-27T10:24:10;22.30;1.00
51595;DHT22;37677;53.254;6.594;2023-05-27T10:26:40;22.60;1.00
51595;DHT22;37677;53.254;6.594;2023-05-27T10:29:16;22.60;1.00
51595;DHT22;37677;53.254;6.594;2023-05-27T10:31:55;22.60;1.00
51595;DHT22;37677;53.254;6.594;2023-05-27T10:34:21;22.30;1.00
51595;DHT22;37677;53.254;6.594;2023-05-27T10:36:58;22.60;1.00
51595;DHT22;37677;53.254;6.594;2023-05-27T10:39:24;22.60;1.00
51595;DHT22;37677;53.254;6.594;2023-05-27T10:41:53;22.60;1.00
51595;DHT22;37677;53.254;6.594;2023-05-27T10:44:36;22.40;9.70
51595;DHT22;37677;53.254;6.594;2023-05-27T10:47:10;22.10;1.00
51595;DHT22;37677;53.254;6.594;2023-05-27T10:49:40;22.40;1.00
51595;DHT22;37677;53.254;6.594;2023-05-27T10:52:08;22.20;1.00
51595;DHT22;37677;53.254;6.594;2023-05-27T10:54:42;22.30;1.00
51595;DHT22;37677;53.254;6.594;2023-05-27T10:57:15;22.20;3.20
51595;DHT22;37677;53.254;6.594;2023-05-27T10:59:49;22.70;1.00
51595;DHT22;37677;53.254;6.594;2023-05-27T11:02:21;22.70;1.00
51595;DHT22;37677;53.254;6.594;2023-05-27T11:04:50;22.80;1.00
51595;DHT22;37677;53.254;6.594;2023-05-27T11:07:20;22.90;1.00
51595;DHT22;37677;53.254;6.594;2023-05-27T11:09:57;22.50;1.00
51595;DHT22;37677;53.254;6.594;2023-05-27T11:12:26;22.40;1.00
51595;DHT22;37677;53.254;6.594;2023-05-27T11:15:02;22.30;1.00
51595;DHT22;37677;53.254;6.594;2023-05-27T11:17:28;22.40;77.30
51595;DHT22;37677;53.254;6.594;2023-05-27T11:19:56;22.60;1.00
51595;DHT22;37677;53.254;6.594;2023-05-27T11:22:22;21.90;1.00
51595;DHT22;37677;53.254;6.594;2023-05-27T11:25:01;21.70;1.00
51595;DHT22;37677;53.254;6.594;2023-05-27T11:27:38;21.90;1.00
51595;DHT22;37677;53.254;6.594;2023-05-27T11:30:12;21.40;1.00
51595;DHT22;37677;53.254;6.594;2023-05-27T11:32:50;21.50;1.00
51595;DHT22;37677;53.254;6.594;2023-05-27T11:35:17;21.00;1.00
51595;DHT22;37677;53.254;6.594;2023-05-27T11:37:49;21.10;35.40
51595;DHT22;37677;53.254;6.594;2023-05-27T11:40:15;21.30;99.90
51595;DHT22;37677;53.254;6.594;2023-05-27T11:42:45;21.30;99.90
51595;DHT22;37677;53.254;6.594;2023-05-27T11:45:19;21.10;99.90
51595;DHT22;37677;53.254;6.594;2023-05-27T11:47:46;21.00;1.00
51595;DHT22;37677;53.254;6.594;2023-05-27T11:50:20;22.10;20.80
51595;DHT22;37677;53.254;6.594;2023-05-27T11:52:54;20.80;99.90
51595;DHT22;37677;53.254;6.594;2023-05-27T11:55:21;20.70;89.70
51595;DHT22;37677;53.254;6.594;2023-05-27T11:57:48;20.80;1.00
51595;DHT22;37677;53.254;6.594;2023-05-27T12:00:14;20.40;94.80
51595;DHT22;37677;53.254;6.594;2023-05-27T12:02:41;20.60;99.90
51595;DHT22;37677;53.254;6.594;2023-05-27T12:05:08;20.50;99.90
51595;DHT22;37677;53.254;6.594;2023-05-27T12:07:34;20.70;1.00
51595;DHT22;37677;53.254;6.594;2023-05-27T12:10:01;20.50;1.00
51595;DHT22;37677;53.254;6.594;2023-05-27T12:12:27;20.50;8.00
51595;DHT22;37677;53.254;6.594;2023-05-27T12:14:54;20.40;24.40
51595;DHT22;37677;53.254;6.594;2023-05-27T12:17:20;20.20;99.90
51595;DHT22;37677;53.254;6.594;2023-05-27T12:19:46;20.40;99.90
51595;DHT22;37677;53.254;6.594;2023-05-27T12:22:12;20.30;1.00
51595;DHT22;37677;53.254;6.594;2023-05-27T12:24:38;20.30;99.90
51595;DHT22;37677;53.254;6.594;2023-05-27T12:27:04;20.30;1.00
51595;DHT22;37677;53.254;6.594;2023-05-27T12:29:30;20.10;1.00
51595;DHT22;37677;53.254;6.594;2023-05-27T12:31:56;19.90;10.80
51595;DHT22;37677;53.254;6.594;2023-05-27T12:34:22;20.00;1.00
51595;DHT22;37677;53.254;6.594;2023-05-27T12:36:47;20.30;1.00
51595;DHT22;37677;53.254;6.594;2023-05-27T12:39:13;20.00;99.90
51595;DHT22;37677;53.254;6.594;2023-05-27T12:41:39;19.80;99.90
51595;DHT22;37677;53.254;6.594;2023-05-27T12:44:05;19.80;1.00
51595;DHT22;37677;53.254;6.594;2023-05-27T12:46:31;19.90;99.90
51595;DHT22;37677;53.254;6.594;2023-05-27T12:48:56;20.00;99.90
51595;DHT22;37677;53.254;6.594;2023-05-27T12:51:22;20.00;99.90
51595;DHT22;37677;53.254;6.594;2023-05-27T12:53:48;20.00;99.90
51595;DHT22;37677;53.254;6.594;2023-05-27T12:56:14;20.10;99.90
51595;DHT22;37677;53.254;6.594;2023-05-27T12:58:41;19.90;1.00
51595;DHT22;37677;53.254;6.594;2023-05-27T13:01:07;20.00;1.00
51595;DHT22;37677;53.254;6.594;2023-05-27T13:03:33;20.10;1.00
51595;DHT22;37677;53.254;6.594;2023-05-27T13:05:59;19.80;99.90
51595;DHT22;37677;53.254;6.594;2023-05-27T13:10:50;19.70;99.90
51595;DHT22;37677;53.254;6.594;2023-05-27T13:13:16;19.70;99.90
51595;DHT22;37677;53.254;6.594;2023-05-27T13:15:42;19.70;99.90
51595;DHT22;37677;53.254;6.594;2023-05-27T13:18:08;19.70;99.90
51595;DHT22;37677;53.254;6.594;2023-05-27T13:20:35;19.60;99.90
51595;DHT22;37677;53.254;6.594;2023-05-27T13:23:01;19.80;99.90
51595;DHT22;37677;53.254;6.594;2023-05-27T13:25:28;19.60;99.90
51595;DHT22;37677;53.254;6.594;2023-05-27T13:27:55;19.80;99.90
51595;DHT22;37677;53.254;6.594;2023-05-27T13:30:22;19.60;1.00
51595;DHT22;37677;53.254;6.594;2023-05-27T13:32:48;19.50;99.90
51595;DHT22;37677;53.254;6.594;2023-05-27T13:35:14;19.70;99.90
